sensor_id;sensor_type;location;lat;lon;timestamp;P1;durP1;ratioP1;P2;durP2;ratioP2
8632;SDS011;4354;49.832;10.746;2023-03-20T00:02:10;8.40;;;7.63;;
8632;SDS011;4354;49.832;10.746;2023-03-20T00:04:46;8.10;;;7.30;;
8632;SDS011;4354;49.832;10.746;2023-03-20T00:07:13;8.97;;;8.17;;
8632;SDS011;4354;49.832;10.746;2023-03-20T00:09:40;8.67;;;7.77;;
8632;SDS011;4354;49.832;10.746;2023-03-20T00:12:09;9.13;;;7.87;;
8632;SDS011;4354;49.832;10.746;2023-03-20T00:14:40;8.57;;;7.73;;
8632;SDS011;4354;49.832;10.746;2023-03-20T00:17:10;9.87;;;8.43;;
8632;SDS011;4354;49.832;10.746;2023-03-20T00:19:43;7.63;;;6.80;;
8632;SDS011;4354;49.832;10.746;2023-03-20T00:22:10;8.93;;;8.03;;
8632;SDS011;4354;49.832;10.746;2023-03-20T00:24:37;7.90;;;7.10;;
8632;SDS011;4354;49.832;10.746;2023-03-20T00:27:04;7.77;;;6.97;;
8632;SDS011;4354;49.832;10.746;2023-03-20T00:29:31;8.20;;;7.23;;
8632;SDS011;4354;49.832;10.746;2023-03-20T00:31:59;8.40;;;7.57;;
8632;SDS011;4354;49.832;10.746;2023-03-20T00:34:27;10.23;;;7.17;;
8632;SDS011;4354;49.832;10.746;2023-03-20T00:36:56;8.00;;;7.20;;
8632;SDS011;4354;49.832;10.746;2023-03-20T00:39:23;8.77;;;7.47;;
8632;SDS011;4354;49.832;10.746;2023-03-20T00:41:51;8.37;;;7.57;;
8632;SDS011;4354;49.832;10.746;2023-03-20T00:44:37;8.40;;;7.50;;
8632;SDS011;4354;49.832;10.746;2023-03-20T00:47:21;7.53;;;6.83;;
8632;SDS011;4354;49.832;10.746;2023-03-20T00:49:50;7.53;;;6.83;;
8632;SDS011;4354;49.832;10.746;2023-03-20T00:52:19;8.37;;;6.80;;
8632;SDS011;4354;49.832;10.746;2023-03-20T00:54:47;7.77;;;6.97;;
8632;SDS011;4354;49.832;10.746;2023-03-20T00:57:24;7.27;;;6.57;;
8632;SDS011;4354;49.832;10.746;2023-03-20T01:00:03;7.83;;;6.63;;
8632;SDS011;4354;49.832;10.746;2023-03-20T01:02:33;7.50;;;6.80;;
8632;SDS011;4354;49.832;10.746;2023-03-20T01:05:00;7.20;;;6.50;;
8632;SDS011;4354;49.832;10.746;2023-03-20T01:07:27;7.33;;;6.60;;
8632;SDS011;4354;49.832;10.746;2023-03-20T01:09:54;8.00;;;7.20;;
8632;SDS011;4354;49.832;10.746;2023-03-20T01:12:21;7.10;;;6.40;;
8632;SDS011;4354;49.832;10.746;2023-03-20T01:14:52;7.30;;;6.60;;
8632;SDS011;4354;49.832;10.746;2023-03-20T01:17:22;7.07;;;6.47;;
8632;SDS011;4354;49.832;10.746;2023-03-20T01:19:50;7.63;;;6.33;;
8632;SDS011;4354;49.832;10.746;2023-03-20T01:22:17;6.30;;;5.70;;
8632;SDS011;4354;49.832;10.746;2023-03-20T01:24:44;6.40;;;5.80;;
8632;SDS011;4354;49.832;10.746;2023-03-20T01:27:13;8.50;;;6.20;;
8632;SDS011;4354;49.832;10.746;2023-03-20T01:29:41;6.83;;;5.60;;
8632;SDS011;4354;49.832;10.746;2023-03-20T01:32:12;6.30;;;5.70;;
8632;SDS011;4354;49.832;10.746;2023-03-20T01:34:41;7.23;;;6.30;;
8632;SDS011;4354;49.832;10.746;2023-03-20T01:37:10;6.73;;;5.90;;
8632;SDS011;4354;49.832;10.746;2023-03-20T01:39:40;5.67;;;5.17;;
8632;SDS011;4354;49.832;10.746;2023-03-20T01:42:07;7.33;;;5.63;;
8632;SDS011;4354;49.832;10.746;2023-03-20T01:44:34;6.77;;;6.17;;
8632;SDS011;4354;49.832;10.746;2023-03-20T01:47:04;5.63;;;5.13;;
8632;SDS011;4354;49.832;10.746;2023-03-20T01:52:26;6.90;;;6.20;;
8632;SDS011;4354;49.832;10.746;2023-03-20T01:54:53;7.57;;;5.83;;
8632;SDS011;4354;49.832;10.746;2023-03-20T01:57:21;7.53;;;6.73;;
8632;SDS011;4354;49.832;10.746;2023-03-20T01:59:50;7.07;;;6.33;;
8632;SDS011;4354;49.832;10.746;2023-03-20T02:02:26;8.53;;;6.80;;
8632;SDS011;4354;49.832;10.746;2023-03-20T02:04:57;7.37;;;6.67;;
8632;SDS011;4354;49.832;10.746;2023-03-20T02:07:27;8.17;;;7.47;;
8632;SDS011;4354;49.832;10.746;2023-03-20T02:09:55;7.60;;;6.90;;
8632;SDS011;4354;49.832;10.746;2023-03-20T02:12:22;9.23;;;8.33;;
8632;SDS011;4354;49.832;10.746;2023-03-20T02:14:49;9.20;;;7.13;;
8632;SDS011;4354;49.832;10.746;2023-03-20T02:17:18;10.60;;;7.27;;
8632;SDS011;4354;49.832;10.746;2023-03-20T02:33:50;7.80;;;6.70;;
8632;SDS011;4354;49.832;10.746;2023-03-20T02:39:40;8.83;;;7.67;;
8632;SDS011;4354;49.832;10.746;2023-03-20T02:43:11;7.40;;;6.20;;
8632;SDS011;4354;49.832;10.746;2023-03-20T02:48:12;7.27;;;6.50;;
8632;SDS011;4354;49.832;10.746;2023-03-20T02:50:46;7.80;;;7.00;;
8632;SDS011;4354;49.832;10.746;2023-03-20T02:53:38;8.40;;;6.77;;
8632;SDS011;4354;49.832;10.746;2023-03-20T03:01:58;8.00;;;7.20;;
8632;SDS011;4354;49.832;10.746;2023-03-20T03:04:32;8.47;;;7.03;;
8632;SDS011;4354;49.832;10.746;2023-03-20T03:07:29;7.80;;;7.13;;
8632;SDS011;4354;49.832;10.746;2023-03-20T03:10:06;8.03;;;7.23;;
8632;SDS011;4354;49.832;10.746;2023-03-20T03:12:37;7.50;;;6.80;;
8632;SDS011;4354;49.832;10.746;2023-03-20T03:15:30;8.23;;;7.17;;
8632;SDS011;4354;49.832;10.746;2023-03-20T03:18:01;8.37;;;6.60;;
8632;SDS011;4354;49.832;10.746;2023-03-20T03:20:32;9.30;;;7.93;;
8632;SDS011;4354;49.832;10.746;2023-03-20T03:23:03;9.47;;;6.70;;
8632;SDS011;4354;49.832;10.746;2023-03-20T03:25:32;7.47;;;6.73;;
8632;SDS011;4354;49.832;10.746;2023-03-20T03:28:22;7.90;;;7.20;;
8632;SDS011;4354;49.832;10.746;2023-03-20T03:30:56;7.93;;;7.13;;
8632;SDS011;4354;49.832;10.746;2023-03-20T03:33:27;9.87;;;7.37;;
8632;SDS011;4354;49.832;10.746;2023-03-20T03:36:00;8.47;;;6.87;;
8632;SDS011;4354;49.832;10.746;2023-03-20T03:47:17;8.13;;;7.20;;
8632;SDS011;4354;49.832;10.746;2023-03-20T03:49:42;7.70;;;7.00;;
8632;SDS011;4354;49.832;10.746;2023-03-20T03:52:15;8.87;;;8.00;;
8632;SDS011;4354;49.832;10.746;2023-03-20T03:54:55;8.90;;;8.00;;
8632;SDS011;4354;49.832;10.746;2023-03-20T03:57:40;7.93;;;7.20;;
8632;SDS011;4354;49.832;10.746;2023-03-20T04:00:13;9.30;;;7.83;;
8632;SDS011;4354;49.832;10.746;2023-03-20T04:02:44;9.27;;;8.37;;
8632;SDS011;4354;49.832;10.746;2023-03-20T04:05:14;9.17;;;8.13;;
8632;SDS011;4354;49.832;10.746;2023-03-20T04:07:44;9.03;;;8.13;;
8632;SDS011;4354;49.832;10.746;2023-03-20T04:10:11;8.77;;;7.87;;
8632;SDS011;4354;49.832;10.746;2023-03-20T04:12:40;10.43;;;7.40;;
8632;SDS011;4354;49.832;10.746;2023-03-20T04:15:09;8.77;;;7.97;;
8632;SDS011;4354;49.832;10.746;2023-03-20T04:17:38;11.23;;;8.33;;
8632;SDS011;4354;49.832;10.746;2023-03-20T04:20:05;9.17;;;8.27;;
8632;SDS011;4354;49.832;10.746;2023-03-20T04:22:33;10.50;;;8.77;;
8632;SDS011;4354;49.832;10.746;2023-03-20T04:25:00;10.63;;;9.47;;
8632;SDS011;4354;49.832;10.746;2023-03-20T04:27:29;9.47;;;8.60;;
8632;SDS011;4354;49.832;10.746;2023-03-20T04:29:55;11.67;;;10.37;;
8632;SDS011;4354;49.832;10.746;2023-03-20T04:32:22;11.03;;;9.90;;
8632;SDS011;4354;49.832;10.746;2023-03-20T04:34:49;9.93;;;9.03;;
8632;SDS011;4354;49.832;10.746;2023-03-20T04:37:17;9.53;;;8.63;;
8632;SDS011;4354;49.832;10.746;2023-03-20T04:39:44;11.33;;;10.23;;
8632;SDS011;4354;49.832;10.746;2023-03-20T04:42:11;11.10;;;10.10;;
8632;SDS011;4354;49.832;10.746;2023-03-20T04:44:38;11.23;;;10.03;;
8632;SDS011;4354;49.832;10.746;2023-03-20T04:47:05;12.37;;;10.53;;
8632;SDS011;4354;49.832;10.746;2023-03-20T04:49:31;11.53;;;10.43;;
8632;SDS011;4354;49.832;10.746;2023-03-20T04:51:58;12.13;;;10.80;;
8632;SDS011;4354;49.832;10.746;2023-03-20T04:54:25;9.93;;;9.03;;
8632;SDS011;4354;49.832;10.746;2023-03-20T04:56:52;10.73;;;9.67;;
8632;SDS011;4354;49.832;10.746;2023-03-20T04:59:18;10.83;;;9.70;;
8632;SDS011;4354;49.832;10.746;2023-03-20T05:01:45;10.83;;;9.60;;
8632;SDS011;4354;49.832;10.746;2023-03-20T05:04:12;13.17;;;10.60;;
8632;SDS011;4354;49.832;10.746;2023-03-20T05:06:39;11.80;;;10.60;;
8632;SDS011;4354;49.832;10.746;2023-03-20T05:09:05;11.03;;;9.93;;
8632;SDS011;4354;49.832;10.746;2023-03-20T05:11:32;10.57;;;9.53;;
8632;SDS011;4354;49.832;10.746;2023-03-20T05:13:59;9.87;;;8.97;;
8632;SDS011;4354;49.832;10.746;2023-03-20T05:16:25;10.00;;;8.80;;
8632;SDS011;4354;49.832;10.746;2023-03-20T05:18:52;9.57;;;8.67;;
8632;SDS011;4354;49.832;10.746;2023-03-20T05:21:19;10.10;;;8.13;;
8632;SDS011;4354;49.832;10.746;2023-03-20T05:23:46;10.00;;;7.57;;
8632;SDS011;4354;49.832;10.746;2023-03-20T05:26:12;9.70;;;8.40;;
8632;SDS011;4354;49.832;10.746;2023-03-20T05:28:39;9.40;;;7.67;;
8632;SDS011;4354;49.832;10.746;2023-03-20T05:31:06;12.03;;;8.33;;
8632;SDS011;4354;49.832;10.746;2023-03-20T05:33:33;9.00;;;8.10;;
8632;SDS011;4354;49.832;10.746;2023-03-20T05:36:03;10.70;;;8.83;;
8632;SDS011;4354;49.832;10.746;2023-03-20T05:38:31;9.17;;;8.27;;
8632;SDS011;4354;49.832;10.746;2023-03-20T05:40:58;9.40;;;8.50;;
8632;SDS011;4354;49.832;10.746;2023-03-20T05:43:25;11.57;;;10.47;;
8632;SDS011;4354;49.832;10.746;2023-03-20T05:45:54;11.13;;;10.13;;
8632;SDS011;4354;49.832;10.746;2023-03-20T05:48:22;11.17;;;9.60;;
8632;SDS011;4354;49.832;10.746;2023-03-20T05:50:49;14.70;;;10.23;;
8632;SDS011;4354;49.832;10.746;2023-03-20T05:53:16;10.70;;;9.60;;
8632;SDS011;4354;49.832;10.746;2023-03-20T05:55:42;9.37;;;8.47;;
8632;SDS011;4354;49.832;10.746;2023-03-20T05:58:10;10.60;;;9.60;;
8632;SDS011;4354;49.832;10.746;2023-03-20T06:00:37;10.10;;;9.10;;
8632;SDS011;4354;49.832;10.746;2023-03-20T06:03:04;10.97;;;9.87;;
8632;SDS011;4354;49.832;10.746;2023-03-20T06:05:34;11.40;;;10.30;;
8632;SDS011;4354;49.832;10.746;2023-03-20T06:08:02;11.57;;;9.90;;
8632;SDS011;4354;49.832;10.746;2023-03-20T06:10:30;10.40;;;9.40;;
8632;SDS011;4354;49.832;10.746;2023-03-20T06:12:57;12.20;;;10.90;;
8632;SDS011;4354;49.832;10.746;2023-03-20T06:15:26;11.37;;;10.00;;
8632;SDS011;4354;49.832;10.746;2023-03-20T06:17:54;13.87;;;12.23;;
8632;SDS011;4354;49.832;10.746;2023-03-20T06:20:22;14.87;;;11.77;;
8632;SDS011;4354;49.832;10.746;2023-03-20T06:22:48;12.47;;;11.10;;
8632;SDS011;4354;49.832;10.746;2023-03-20T06:25:16;15.07;;;11.37;;
8632;SDS011;4354;49.832;10.746;2023-03-20T06:27:44;12.73;;;10.70;;
8632;SDS011;4354;49.832;10.746;2023-03-20T06:30:13;12.13;;;10.67;;
8632;SDS011;4354;49.832;10.746;2023-03-20T06:32:40;14.17;;;11.47;;
8632;SDS011;4354;49.832;10.746;2023-03-20T06:35:08;14.53;;;11.80;;
8632;SDS011;4354;49.832;10.746;2023-03-20T06:37:35;13.13;;;11.20;;
8632;SDS011;4354;49.832;10.746;2023-03-20T06:40:02;11.83;;;10.63;;
8632;SDS011;4354;49.832;10.746;2023-03-20T06:42:30;11.73;;;10.43;;
8632;SDS011;4354;49.832;10.746;2023-03-20T06:44:57;12.30;;;11.00;;
8632;SDS011;4354;49.832;10.746;2023-03-20T06:47:23;13.30;;;11.97;;
8632;SDS011;4354;49.832;10.746;2023-03-20T06:49:50;13.73;;;11.67;;
8632;SDS011;4354;49.832;10.746;2023-03-20T06:52:18;12.87;;;11.73;;
8632;SDS011;4354;49.832;10.746;2023-03-20T06:54:47;13.17;;;11.83;;
8632;SDS011;4354;49.832;10.746;2023-03-20T06:57:16;16.13;;;13.20;;
8632;SDS011;4354;49.832;10.746;2023-03-20T06:59:43;16.67;;;14.97;;
8632;SDS011;4354;49.832;10.746;2023-03-20T07:02:10;14.83;;;13.33;;
8632;SDS011;4354;49.832;10.746;2023-03-20T07:04:37;20.63;;;15.33;;
8632;SDS011;4354;49.832;10.746;2023-03-20T07:07:04;20.63;;;18.13;;
8632;SDS011;4354;49.832;10.746;2023-03-20T07:09:31;21.77;;;19.00;;
8632;SDS011;4354;49.832;10.746;2023-03-20T07:11:58;26.10;;;21.23;;
8632;SDS011;4354;49.832;10.746;2023-03-20T07:14:25;23.80;;;20.07;;
8632;SDS011;4354;49.832;10.746;2023-03-20T07:16:51;23.60;;;20.90;;
8632;SDS011;4354;49.832;10.746;2023-03-20T07:19:19;25.10;;;20.60;;
8632;SDS011;4354;49.832;10.746;2023-03-20T07:21:47;25.13;;;22.43;;
8632;SDS011;4354;49.832;10.746;2023-03-20T07:24:14;26.13;;;22.43;;
8632;SDS011;4354;49.832;10.746;2023-03-20T07:26:40;26.87;;;23.80;;
8632;SDS011;4354;49.832;10.746;2023-03-20T07:29:07;26.47;;;23.67;;
8632;SDS011;4354;49.832;10.746;2023-03-20T07:31:34;25.73;;;23.03;;
8632;SDS011;4354;49.832;10.746;2023-03-20T07:34:01;29.43;;;24.13;;
8632;SDS011;4354;49.832;10.746;2023-03-20T07:36:28;27.80;;;22.23;;
8632;SDS011;4354;49.832;10.746;2023-03-20T07:38:54;29.83;;;23.37;;
8632;SDS011;4354;49.832;10.746;2023-03-20T07:41:21;46.40;;;31.23;;
8632;SDS011;4354;49.832;10.746;2023-03-20T07:43:48;30.50;;;23.63;;
8632;SDS011;4354;49.832;10.746;2023-03-20T07:46:14;33.23;;;27.20;;
8632;SDS011;4354;49.832;10.746;2023-03-20T07:48:41;37.23;;;26.70;;
8632;SDS011;4354;49.832;10.746;2023-03-20T07:51:08;31.13;;;25.33;;
8632;SDS011;4354;49.832;10.746;2023-03-20T07:53:35;35.07;;;28.47;;
8632;SDS011;4354;49.832;10.746;2023-03-20T07:56:02;26.53;;;23.63;;
8632;SDS011;4354;49.832;10.746;2023-03-20T07:58:29;19.13;;;17.17;;
8632;SDS011;4354;49.832;10.746;2023-03-20T08:00:56;17.63;;;15.73;;
8632;SDS011;4354;49.832;10.746;2023-03-20T08:03:24;21.50;;;17.63;;
8632;SDS011;4354;49.832;10.746;2023-03-20T08:05:51;21.73;;;17.30;;
8632;SDS011;4354;49.832;10.746;2023-03-20T08:08:21;18.60;;;16.70;;
8632;SDS011;4354;49.832;10.746;2023-03-20T08:10:47;19.43;;;17.37;;
8632;SDS011;4354;49.832;10.746;2023-03-20T08:13:14;19.13;;;16.97;;
8632;SDS011;4354;49.832;10.746;2023-03-20T08:15:41;19.13;;;16.80;;
8632;SDS011;4354;49.832;10.746;2023-03-20T08:18:07;17.80;;;16.03;;
8632;SDS011;4354;49.832;10.746;2023-03-20T08:20:34;20.07;;;17.40;;
8632;SDS011;4354;49.832;10.746;2023-03-20T08:23:01;17.50;;;15.70;;
8632;SDS011;4354;49.832;10.746;2023-03-20T08:25:28;17.50;;;15.63;;
8632;SDS011;4354;49.832;10.746;2023-03-20T08:27:59;17.67;;;15.87;;
8632;SDS011;4354;49.832;10.746;2023-03-20T08:30:26;18.13;;;16.33;;
8632;SDS011;4354;49.832;10.746;2023-03-20T08:32:53;18.43;;;16.00;;
8632;SDS011;4354;49.832;10.746;2023-03-20T08:35:21;16.40;;;14.80;;
8632;SDS011;4354;49.832;10.746;2023-03-20T08:37:59;14.77;;;13.37;;
8632;SDS011;4354;49.832;10.746;2023-03-20T08:40:26;15.30;;;13.83;;
8632;SDS011;4354;49.832;10.746;2023-03-20T08:42:53;13.87;;;12.53;;
8632;SDS011;4354;49.832;10.746;2023-03-20T08:45:20;15.27;;;13.77;;
8632;SDS011;4354;49.832;10.746;2023-03-20T08:47:51;14.67;;;13.37;;
8632;SDS011;4354;49.832;10.746;2023-03-20T08:50:18;16.03;;;12.97;;
8632;SDS011;4354;49.832;10.746;2023-03-20T08:52:45;14.07;;;12.57;;
8632;SDS011;4354;49.832;10.746;2023-03-20T08:55:12;12.37;;;11.27;;
8632;SDS011;4354;49.832;10.746;2023-03-20T08:57:41;13.23;;;12.03;;
8632;SDS011;4354;49.832;10.746;2023-03-20T09:00:09;13.20;;;12.00;;
8632;SDS011;4354;49.832;10.746;2023-03-20T09:02:38;12.37;;;11.17;;
8632;SDS011;4354;49.832;10.746;2023-03-20T09:05:05;13.30;;;12.10;;
8632;SDS011;4354;49.832;10.746;2023-03-20T09:07:33;13.53;;;10.80;;
8632;SDS011;4354;49.832;10.746;2023-03-20T09:10:00;13.00;;;11.80;;
8632;SDS011;4354;49.832;10.746;2023-03-20T09:12:26;13.80;;;12.40;;
8632;SDS011;4354;49.832;10.746;2023-03-20T09:14:53;14.07;;;12.63;;
8632;SDS011;4354;49.832;10.746;2023-03-20T09:17:20;12.37;;;11.17;;
8632;SDS011;4354;49.832;10.746;2023-03-20T09:19:47;13.57;;;12.13;;
8632;SDS011;4354;49.832;10.746;2023-03-20T09:22:13;13.40;;;11.67;;
8632;SDS011;4354;49.832;10.746;2023-03-20T09:24:43;13.80;;;11.93;;
8632;SDS011;4354;49.832;10.746;2023-03-20T09:27:10;12.63;;;11.50;;
8632;SDS011;4354;49.832;10.746;2023-03-20T09:29:41;14.60;;;12.40;;
8632;SDS011;4354;49.832;10.746;2023-03-20T09:32:10;13.77;;;12.47;;
8632;SDS011;4354;49.832;10.746;2023-03-20T09:34:37;14.37;;;12.87;;
8632;SDS011;4354;49.832;10.746;2023-03-20T09:37:04;14.20;;;12.40;;
8632;SDS011;4354;49.832;10.746;2023-03-20T09:39:32;14.47;;;12.97;;
8632;SDS011;4354;49.832;10.746;2023-03-20T09:42:00;14.77;;;13.37;;
8632;SDS011;4354;49.832;10.746;2023-03-20T09:55:22;11.40;;;10.27;;
8632;SDS011;4354;49.832;10.746;2023-03-20T09:58:01;13.23;;;11.10;;
8632;SDS011;4354;49.832;10.746;2023-03-20T10:00:31;11.63;;;10.43;;
8632;SDS011;4354;49.832;10.746;2023-03-20T10:03:03;11.10;;;10.10;;
8632;SDS011;4354;49.832;10.746;2023-03-20T10:05:44;11.20;;;10.10;;
8632;SDS011;4354;49.832;10.746;2023-03-20T10:08:32;12.97;;;11.07;;
8632;SDS011;4354;49.832;10.746;2023-03-20T10:13:58;12.30;;;11.00;;
8632;SDS011;4354;49.832;10.746;2023-03-20T10:19:23;11.57;;;10.20;;
8632;SDS011;4354;49.832;10.746;2023-03-20T10:22:20;11.70;;;10.50;;
8632;SDS011;4354;49.832;10.746;2023-03-20T10:25:15;12.57;;;11.23;;
8632;SDS011;4354;49.832;10.746;2023-03-20T10:27:58;13.53;;;11.90;;
8632;SDS011;4354;49.832;10.746;2023-03-20T10:38:52;12.37;;;11.03;;
8632;SDS011;4354;49.832;10.746;2023-03-20T10:41:40;13.87;;;11.47;;
8632;SDS011;4354;49.832;10.746;2023-03-20T10:44:13;13.60;;;11.40;;
8632;SDS011;4354;49.832;10.746;2023-03-20T10:46:47;12.30;;;10.90;;
8632;SDS011;4354;49.832;10.746;2023-03-20T10:51:55;13.73;;;11.50;;
8632;SDS011;4354;49.832;10.746;2023-03-20T10:54:35;15.93;;;11.80;;
8632;SDS011;4354;49.832;10.746;2023-03-20T10:57:12;14.48;;;11.07;;
8632;SDS011;4354;49.832;10.746;2023-03-20T10:59:51;13.57;;;12.03;;
8632;SDS011;4354;49.832;10.746;2023-03-20T11:02:21;14.33;;;11.60;;
8632;SDS011;4354;49.832;10.746;2023-03-20T11:04:53;17.90;;;12.57;;
8632;SDS011;4354;49.832;10.746;2023-03-20T11:07:26;14.17;;;11.63;;
8632;SDS011;4354;49.832;10.746;2023-03-20T11:12:31;14.85;;;12.55;;
8632;SDS011;4354;49.832;10.746;2023-03-20T11:17:57;14.20;;;11.63;;
8632;SDS011;4354;49.832;10.746;2023-03-20T11:20:26;15.40;;;11.63;;
8632;SDS011;4354;49.832;10.746;2023-03-20T11:23:00;15.20;;;11.93;;
8632;SDS011;4354;49.832;10.746;2023-03-20T11:25:31;15.60;;;12.83;;
8632;SDS011;4354;49.832;10.746;2023-03-20T11:28:17;15.07;;;12.20;;
8632;SDS011;4354;49.832;10.746;2023-03-20T11:30:44;16.60;;;12.73;;
8632;SDS011;4354;49.832;10.746;2023-03-20T11:33:30;15.87;;;12.40;;
8632;SDS011;4354;49.832;10.746;2023-03-20T11:35:59;13.67;;;11.80;;
8632;SDS011;4354;49.832;10.746;2023-03-20T11:38:27;30.13;;;20.00;;
8632;SDS011;4354;49.832;10.746;2023-03-20T11:40:56;29.67;;;19.07;;
8632;SDS011;4354;49.832;10.746;2023-03-20T11:43:24;21.87;;;15.53;;
8632;SDS011;4354;49.832;10.746;2023-03-20T11:45:58;18.97;;;15.53;;
8632;SDS011;4354;49.832;10.746;2023-03-20T11:48:36;19.37;;;14.23;;
8632;SDS011;4354;49.832;10.746;2023-03-20T11:51:05;16.47;;;13.63;;
8632;SDS011;4354;49.832;10.746;2023-03-20T11:53:41;20.13;;;15.50;;
8632;SDS011;4354;49.832;10.746;2023-03-20T11:56:24;14.70;;;13.20;;
8632;SDS011;4354;49.832;10.746;2023-03-20T11:59:05;15.40;;;12.47;;
8632;SDS011;4354;49.832;10.746;2023-03-20T12:01:44;14.10;;;12.60;;
8632;SDS011;4354;49.832;10.746;2023-03-20T12:12:29;13.30;;;11.15;;
8632;SDS011;4354;49.832;10.746;2023-03-20T12:15:13;13.82;;;12.52;;
8632;SDS011;4354;49.832;10.746;2023-03-20T12:26:31;12.48;;;11.27;;
8632;SDS011;4354;49.832;10.746;2023-03-20T12:29:07;12.17;;;10.87;;
8632;SDS011;4354;49.832;10.746;2023-03-20T12:31:41;12.50;;;11.30;;
8632;SDS011;4354;49.832;10.746;2023-03-20T12:34:17;13.47;;;12.17;;
8632;SDS011;4354;49.832;10.746;2023-03-20T12:36:48;13.33;;;11.87;;
8632;SDS011;4354;49.832;10.746;2023-03-20T12:39:19;11.77;;;10.67;;
8632;SDS011;4354;49.832;10.746;2023-03-20T12:51:02;12.07;;;10.83;;
8632;SDS011;4354;49.832;10.746;2023-03-20T12:53:44;10.50;;;9.50;;
8632;SDS011;4354;49.832;10.746;2023-03-20T13:01:50;11.00;;;9.93;;
8632;SDS011;4354;49.832;10.746;2023-03-20T13:12:55;9.10;;;8.20;;
8632;SDS011;4354;49.832;10.746;2023-03-20T13:20:42;9.87;;;8.87;;
8632;SDS011;4354;49.832;10.746;2023-03-20T13:23:24;11.03;;;9.77;;
8632;SDS011;4354;49.832;10.746;2023-03-20T13:29:12;9.68;;;8.68;;
8632;SDS011;4354;49.832;10.746;2023-03-20T13:42:31;10.95;;;9.70;;
8632;SDS011;4354;49.832;10.746;2023-03-20T13:45:06;9.95;;;8.85;;
8632;SDS011;4354;49.832;10.746;2023-03-20T13:47:46;9.63;;;8.73;;
8632;SDS011;4354;49.832;10.746;2023-03-20T13:50:22;10.55;;;8.73;;
8632;SDS011;4354;49.832;10.746;2023-03-20T13:53:02;10.25;;;8.82;;
8632;SDS011;4354;49.832;10.746;2023-03-20T13:58:39;10.45;;;8.98;;
8632;SDS011;4354;49.832;10.746;2023-03-20T14:01:12;9.52;;;8.48;;
8632;SDS011;4354;49.832;10.746;2023-03-20T14:03:43;9.55;;;8.48;;
8632;SDS011;4354;49.832;10.746;2023-03-20T14:06:24;9.95;;;8.85;;
8632;SDS011;4354;49.832;10.746;2023-03-20T14:09:26;8.75;;;7.75;;
8632;SDS011;4354;49.832;10.746;2023-03-20T14:12:02;8.80;;;7.53;;
8632;SDS011;4354;49.832;10.746;2023-03-20T14:14:30;8.30;;;7.18;;
8632;SDS011;4354;49.832;10.746;2023-03-20T14:17:06;9.43;;;7.25;;
8632;SDS011;4354;49.832;10.746;2023-03-20T14:19:45;8.73;;;6.80;;
8632;SDS011;4354;49.832;10.746;2023-03-20T14:22:46;7.85;;;6.65;;
8632;SDS011;4354;49.832;10.746;2023-03-20T14:25:07;8.43;;;7.45;;
8632;SDS011;4354;49.832;10.746;2023-03-20T14:27:55;7.85;;;6.95;;
8632;SDS011;4354;49.832;10.746;2023-03-20T14:33:21;8.68;;;6.95;;
8632;SDS011;4354;49.832;10.746;2023-03-20T14:35:49;7.43;;;6.30;;
8632;SDS011;4354;49.832;10.746;2023-03-20T14:38:23;7.55;;;6.80;;
8632;SDS011;4354;49.832;10.746;2023-03-20T14:43:54;7.65;;;6.85;;
8632;SDS011;4354;49.832;10.746;2023-03-20T14:52:26;7.43;;;6.65;;
8632;SDS011;4354;49.832;10.746;2023-03-20T14:55:13;7.30;;;6.45;;
8632;SDS011;4354;49.832;10.746;2023-03-20T14:57:53;9.30;;;6.50;;
8632;SDS011;4354;49.832;10.746;2023-03-20T15:00:23;7.30;;;6.18;;
8632;SDS011;4354;49.832;10.746;2023-03-20T15:02:58;6.70;;;6.00;;
8632;SDS011;4354;49.832;10.746;2023-03-20T15:05:33;6.90;;;5.78;;
8632;SDS011;4354;49.832;10.746;2023-03-20T15:08:03;5.82;;;5.28;;
8632;SDS011;4354;49.832;10.746;2023-03-20T15:10:51;6.38;;;5.78;;
8632;SDS011;4354;49.832;10.746;2023-03-20T15:13:21;5.85;;;5.25;;
8632;SDS011;4354;49.832;10.746;2023-03-20T15:15:51;7.85;;;6.63;;
8632;SDS011;4354;49.832;10.746;2023-03-20T15:18:20;6.65;;;5.97;;
8632;SDS011;4354;49.832;10.746;2023-03-20T15:20:49;6.68;;;5.82;;
8632;SDS011;4354;49.832;10.746;2023-03-20T15:23:16;9.80;;;6.88;;
8632;SDS011;4354;49.832;10.746;2023-03-20T15:25:43;7.40;;;6.30;;
8632;SDS011;4354;49.832;10.746;2023-03-20T15:28:15;9.00;;;6.95;;
8632;SDS011;4354;49.832;10.746;2023-03-20T15:30:45;9.48;;;7.55;;
8632;SDS011;4354;49.832;10.746;2023-03-20T15:33:15;8.80;;;7.57;;
8632;SDS011;4354;49.832;10.746;2023-03-20T15:35:45;9.35;;;7.85;;
8632;SDS011;4354;49.832;10.746;2023-03-20T15:38:13;9.48;;;8.48;;
8632;SDS011;4354;49.832;10.746;2023-03-20T15:40:42;10.23;;;8.27;;
8632;SDS011;4354;49.832;10.746;2023-03-20T15:43:24;9.13;;;8.23;;
8632;SDS011;4354;49.832;10.746;2023-03-20T15:45:52;10.30;;;8.50;;
8632;SDS011;4354;49.832;10.746;2023-03-20T15:48:31;11.53;;;8.20;;
8632;SDS011;4354;49.832;10.746;2023-03-20T15:50:58;8.50;;;7.47;;
8632;SDS011;4354;49.832;10.746;2023-03-20T15:53:36;11.80;;;7.60;;
8632;SDS011;4354;49.832;10.746;2023-03-20T15:56:05;8.10;;;7.30;;
8632;SDS011;4354;49.832;10.746;2023-03-20T15:58:44;8.87;;;7.90;;
8632;SDS011;4354;49.832;10.746;2023-03-20T16:01:18;9.77;;;7.53;;
8632;SDS011;4354;49.832;10.746;2023-03-20T16:03:47;8.17;;;7.33;;
8632;SDS011;4354;49.832;10.746;2023-03-20T16:06:17;11.63;;;8.33;;
8632;SDS011;4354;49.832;10.746;2023-03-20T16:08:54;8.97;;;8.03;;
8632;SDS011;4354;49.832;10.746;2023-03-20T16:11:22;10.20;;;7.83;;
8632;SDS011;4354;49.832;10.746;2023-03-20T16:13:49;11.77;;;7.73;;
8632;SDS011;4354;49.832;10.746;2023-03-20T16:16:22;9.10;;;7.67;;
8632;SDS011;4354;49.832;10.746;2023-03-20T16:18:50;9.43;;;7.93;;
8632;SDS011;4354;49.832;10.746;2023-03-20T16:21:17;9.47;;;8.30;;
8632;SDS011;4354;49.832;10.746;2023-03-20T16:23:48;10.10;;;8.47;;
8632;SDS011;4354;49.832;10.746;2023-03-20T16:26:18;10.90;;;8.87;;
8632;SDS011;4354;49.832;10.746;2023-03-20T16:28:57;10.97;;;7.90;;
8632;SDS011;4354;49.832;10.746;2023-03-20T16:31:28;10.83;;;7.77;;
8632;SDS011;4354;49.832;10.746;2023-03-20T16:34:08;9.83;;;7.33;;
8632;SDS011;4354;49.832;10.746;2023-03-20T16:36:48;9.00;;;7.63;;
8632;SDS011;4354;49.832;10.746;2023-03-20T16:39:18;10.37;;;7.73;;
8632;SDS011;4354;49.832;10.746;2023-03-20T16:41:51;9.37;;;8.10;;
8632;SDS011;4354;49.832;10.746;2023-03-20T16:44:42;9.27;;;7.90;;
8632;SDS011;4354;49.832;10.746;2023-03-20T16:50:22;9.10;;;7.67;;
8632;SDS011;4354;49.832;10.746;2023-03-20T16:52:29;10.37;;;8.00;;
8632;SDS011;4354;49.832;10.746;2023-03-20T16:55:00;10.30;;;7.90;;
8632;SDS011;4354;49.832;10.746;2023-03-20T16:57:31;9.83;;;7.87;;
8632;SDS011;4354;49.832;10.746;2023-03-20T17:00:06;9.47;;;8.10;;
8632;SDS011;4354;49.832;10.746;2023-03-20T17:03:00;9.97;;;8.60;;
8632;SDS011;4354;49.832;10.746;2023-03-20T17:05:48;11.47;;;8.73;;
8632;SDS011;4354;49.832;10.746;2023-03-20T17:08:33;9.70;;;8.30;;
8632;SDS011;4354;49.832;10.746;2023-03-20T17:11:04;9.90;;;8.90;;
8632;SDS011;4354;49.832;10.746;2023-03-20T17:13:36;9.80;;;8.50;;
8632;SDS011;4354;49.832;10.746;2023-03-20T17:16:03;11.13;;;8.40;;
8632;SDS011;4354;49.832;10.746;2023-03-20T17:18:30;10.60;;;7.87;;
8632;SDS011;4354;49.832;10.746;2023-03-20T17:20:57;9.03;;;6.83;;
8632;SDS011;4354;49.832;10.746;2023-03-20T17:23:24;9.97;;;8.13;;
8632;SDS011;4354;49.832;10.746;2023-03-20T17:25:51;9.83;;;7.13;;
8632;SDS011;4354;49.832;10.746;2023-03-20T17:28:22;9.83;;;7.60;;
8632;SDS011;4354;49.832;10.746;2023-03-20T17:30:53;9.50;;;7.53;;
8632;SDS011;4354;49.832;10.746;2023-03-20T17:33:20;8.73;;;7.27;;
8632;SDS011;4354;49.832;10.746;2023-03-20T17:35:47;10.37;;;7.20;;
8632;SDS011;4354;49.832;10.746;2023-03-20T17:38:15;9.03;;;7.33;;
8632;SDS011;4354;49.832;10.746;2023-03-20T17:40:44;11.20;;;8.40;;